»·PEaware :: JUS326 KPDX-KSEA

JUS326 :: KPDX-KSEA

FLIGHT INFORMATION

Flight Status: Arrived
Operator:
USA Jet
More flights by this operator :: More flights under this callsign
Pilot: Erik S. (3779)
Aircraft: BOEING 737-300
(B733)
More flights by this aircraft type
Origin: KPDX Portland Intl
United States
Destination: KSEA Seattle-Tacoma Intl
United States
More flights between these airports :: More routes between these airports
Route: +PTLD1 COUGA KRIEG HAWKZ6
File this flight plan on PilotEdge
Remarks:
Altitude:
(Current/Filed)
20,000ft
Speed:
(Current/Filed)
0kts
Departed: 03-Jan-18 12:12 PM
Arrived: 03-Jan-18 12:49 PM
Distance/Time
Traveled:
113nm/0:37
Distance/Time
To Go:
Arrived

Flight Plot

Page will automatically refresh every two minutes.

Flight plan parsing failed; only flown route is shown


Map Options




Map Legend


Flown Route
Filed Route
Departure Airport
Arrival Airport
Navaid (VOR, NDB)
Fix

Horizontal Profiles

Position Reports

Time Latitude Longitude Heading Altitude Ground
Speed
03-Jan-18 12:03 45.582107 -122.611187 45 31ft 0kts
03-Jan-18 12:04 45.582107 -122.611187 45 31ft 0kts
03-Jan-18 12:05 45.582107 -122.611187 45 31ft 0kts
03-Jan-18 12:06 45.582107 -122.611187 45 31ft 0kts
03-Jan-18 12:07 45.581762 -122.611613 17 31ft 0kts
03-Jan-18 12:08 45.581505 -122.611359 277 31ft 0kts
03-Jan-18 12:09 45.581505 -122.611359 239 31ft 0kts
03-Jan-18 12:10 45.582367 -122.613089 312 31ft 14kts
03-Jan-18 12:11 45.586400 -122.609221 42 31ft 18kts
03-Jan-18 12:12 45.589247 -122.609677 299 31ft 18kts
03-Jan-18 12:13 45.591043 -122.616977 303 31ft 17kts
03-Jan-18 12:14 45.591717 -122.618898 296 31ft 16kts
03-Jan-18 12:15 45.593970 -122.622403 31 31ft 0kts
03-Jan-18 12:16 45.593970 -122.622403 31 31ft 0kts
03-Jan-18 12:17 45.594267 -122.622184 27 31ft 8kts
03-Jan-18 12:18 45.587603 -122.602108 116 32ft 139kts
03-Jan-18 12:19 45.574178 -122.556181 106 30ft 144kts
03-Jan-18 12:21 45.593965 -122.622320 0 31ft 0kts
03-Jan-18 12:22 45.593965 -122.622320 0 31ft 0kts
03-Jan-18 12:23 45.593965 -122.622320 0 31ft 0kts
03-Jan-18 12:24 45.594246 -122.622230 19 31ft 10kts
03-Jan-18 12:25 45.584805 -122.594846 117 214ft 177kts
03-Jan-18 12:26 45.560768 -122.531836 117 2836ft 206kts
03-Jan-18 12:27 45.531981 -122.456325 117 5102ft 236kts
03-Jan-18 12:28 45.538678 -122.370684 26 7082ft 267kts
03-Jan-18 12:29 45.609567 -122.390398 336 9436ft 280kts
03-Jan-18 12:30 45.686171 -122.435983 337 10757ft 330kts
03-Jan-18 12:31 45.772257 -122.486831 336 12939ft 340kts
03-Jan-18 12:32 45.858612 -122.537965 335 14958ft 346kts
03-Jan-18 12:33 45.948076 -122.591238 335 16597ft 359kts
03-Jan-18 12:34 46.041593 -122.647101 334 18288ft 364kts
03-Jan-18 12:35 46.121377 -122.683685 349 19770ft 369kts
03-Jan-18 12:36 46.242487 -122.707043 349 20256ft 400kts
03-Jan-18 12:37 46.335508 -122.723317 355 20295ft 409kts
03-Jan-18 12:38 46.446838 -122.726862 355 20318ft 386kts
03-Jan-18 12:39 46.568071 -122.731208 355 17775ft 368kts
03-Jan-18 12:40 46.650189 -122.734158 356 16109ft 343kts
03-Jan-18 12:41 46.744986 -122.737560 357 14199ft 338kts
03-Jan-18 12:42 46.824892 -122.691837 38 12666ft 314kts
03-Jan-18 12:43 46.889563 -122.606367 43 12050ft 321kts
03-Jan-18 12:44 46.950642 -122.517000 45 10091ft 319kts
03-Jan-18 12:45 47.014465 -122.441307 29 8258ft 272kts
03-Jan-18 12:46 47.075282 -122.389984 29 6916ft 239kts
03-Jan-18 12:47 47.133470 -122.340507 29 5995ft 229kts
03-Jan-18 12:48 47.189434 -122.308925 6 4883ft 211kts
03-Jan-18 12:49 47.241860 -122.308635 357 3942ft 170kts
03-Jan-18 12:50 47.281549 -122.309637 0 3190ft 137kts
03-Jan-18 12:51 47.319544 -122.309110 1 2478ft 136kts
03-Jan-18 12:52 47.357190 -122.308756 1 1809ft 136kts
03-Jan-18 12:53 47.394457 -122.308358 0 1149ft 136kts
03-Jan-18 12:54 47.431310 -122.308054 0 488ft 133kts
03-Jan-18 12:55 47.450224 -122.306329 50 440ft 15kts
03-Jan-18 12:56 47.451042 -122.305900 94 440ft 11kts
03-Jan-18 12:57 47.457133 -122.304698 63 440ft 18kts
03-Jan-18 12:58 47.457144 -122.302314 89 440ft 0kts
03-Jan-18 12:59 47.457144 -122.302314 89 440ft 0kts
03-Jan-18 13:00 47.457144 -122.302314 89 440ft 0kts
03-Jan-18 13:01 47.457144 -122.302314 89 440ft 0kts
03-Jan-18 13:02 47.457144 -122.302314 89 440ft 0kts
03-Jan-18 13:03 47.457144 -122.302314 89 440ft 0kts
03-Jan-18 13:04 47.457144 -122.302314 89 440ft 0kts
03-Jan-18 13:05 47.457144 -122.302314 89 440ft 0kts
03-Jan-18 13:06 47.457144 -122.302314 89 440ft 0kts
03-Jan-18 13:07 47.457144 -122.302314 89 440ft 0kts
03-Jan-18 13:08 47.457144 -122.302314 89 440ft 0kts
03-Jan-18 13:09 47.457144 -122.302314 89 440ft 0kts

Navigation Log

Ident Type
Flight plan parsing failed, navigation log unavailable